createdAt,value
2023-09-23T00:02:10.683Z,14.70
2023-09-23T00:04:38.377Z,14.74
2023-09-23T00:07:07.420Z,14.76
2023-09-23T00:09:37.721Z,14.83
2023-09-23T00:12:06.637Z,14.87
2023-09-23T00:14:34.086Z,14.86
2023-09-23T00:17:01.552Z,14.84
2023-09-23T00:19:28.866Z,14.78
2023-09-23T00:21:56.017Z,14.67
2023-09-23T00:24:25.368Z,14.56
2023-09-23T00:26:54.122Z,14.46
2023-09-23T00:29:26.199Z,14.35
2023-09-23T00:31:55.759Z,14.28
2023-09-23T00:34:24.710Z,14.22
2023-09-23T00:36:52.550Z,14.12
2023-09-23T00:39:20.000Z,14.07
2023-09-23T00:41:49.069Z,14.01
2023-09-23T00:44:16.652Z,13.95
2023-09-23T00:46:45.404Z,13.90
2023-09-23T00:49:14.542Z,13.89
2023-09-23T00:51:42.390Z,13.89
2023-09-23T00:54:09.705Z,13.86
2023-09-23T00:56:37.716Z,13.78
2023-09-23T00:59:08.057Z,13.80
2023-09-23T01:01:36.595Z,13.77
2023-09-23T01:04:06.021Z,13.78
2023-09-23T01:06:34.163Z,13.78
2023-09-23T01:09:01.625Z,13.78
2023-09-23T01:11:31.572Z,13.77
2023-09-23T01:13:58.762Z,13.72
2023-09-23T01:16:28.062Z,13.64
2023-09-23T01:18:55.412Z,13.56
2023-09-23T01:21:24.371Z,13.52
2023-09-23T01:23:54.653Z,13.45
2023-09-23T01:26:22.518Z,13.44
2023-09-23T01:28:50.535Z,13.44
2023-09-23T01:31:22.729Z,13.44
2023-09-23T01:33:52.134Z,13.46
2023-09-23T01:36:19.732Z,13.49
2023-09-23T01:38:47.607Z,13.50
2023-09-23T01:41:19.569Z,13.50
2023-09-23T01:43:50.159Z,13.47
2023-09-23T01:46:20.540Z,13.44
2023-09-23T01:48:47.887Z,13.42
2023-09-23T01:51:17.925Z,13.37
2023-09-23T01:53:45.410Z,13.31
2023-09-23T01:56:13.653Z,13.29
2023-09-23T01:58:43.261Z,13.26
2023-09-23T02:01:10.706Z,13.24
2023-09-23T02:03:38.191Z,13.24
2023-09-23T02:06:05.682Z,13.22
2023-09-23T02:08:32.962Z,13.19
2023-09-23T02:11:01.171Z,13.21
2023-09-23T02:13:29.572Z,13.20
2023-09-23T02:16:00.042Z,13.18
2023-09-23T02:18:27.799Z,13.23
2023-09-23T02:20:55.490Z,13.23
2023-09-23T02:23:23.448Z,13.21
2023-09-23T02:25:51.816Z,13.15
2023-09-23T02:28:19.398Z,13.08
2023-09-23T02:30:46.655Z,13.08
2023-09-23T02:33:15.594Z,13.08
2023-09-23T02:35:43.531Z,13.06
2023-09-23T02:38:11.539Z,13.04
2023-09-23T02:40:41.695Z,13.04
2023-09-23T02:43:08.924Z,13.06
2023-09-23T02:45:37.726Z,13.06
2023-09-23T02:48:05.824Z,13.01
2023-09-23T02:50:38.224Z,12.99
2023-09-23T02:53:05.620Z,12.94
2023-09-23T02:55:32.852Z,12.91
2023-09-23T02:58:00.280Z,12.89
2023-09-23T03:00:31.703Z,12.90
2023-09-23T03:03:03.271Z,12.90
2023-09-23T03:05:31.457Z,12.88
2023-09-23T03:08:03.109Z,12.87
2023-09-23T03:10:50.706Z,12.81
2023-09-23T03:13:18.827Z,12.84
2023-09-23T03:15:54.386Z,12.74
2023-09-23T03:18:35.299Z,12.81
2023-09-23T03:21:05.338Z,12.80
2023-09-23T03:23:35.306Z,12.74
2023-09-23T03:26:03.134Z,12.79
2023-09-23T03:28:30.396Z,12.79
2023-09-23T03:31:00.688Z,12.77
2023-09-23T03:33:31.315Z,12.73
2023-09-23T03:35:58.656Z,12.73
2023-09-23T03:38:27.567Z,12.72
2023-09-23T03:41:01.029Z,12.74
2023-09-23T03:43:29.008Z,12.76
2023-09-23T03:45:57.330Z,12.82
2023-09-23T03:48:24.728Z,12.92
2023-09-23T03:50:54.156Z,13.04
2023-09-23T03:53:24.904Z,13.12
2023-09-23T03:55:57.084Z,13.18
2023-09-23T03:58:26.765Z,13.26
2023-09-23T04:00:58.234Z,13.35
2023-09-23T04:03:25.719Z,13.47
2023-09-23T04:05:56.726Z,13.51
2023-09-23T04:08:24.815Z,13.57
2023-09-23T04:10:52.115Z,13.65
2023-09-23T04:13:19.907Z,13.75
2023-09-23T04:15:48.783Z,13.83
2023-09-23T04:18:15.998Z,13.91
2023-09-23T04:20:45.379Z,14.00
2023-09-23T04:23:12.772Z,14.07
2023-09-23T04:25:40.162Z,14.13
2023-09-23T04:28:07.423Z,14.19
2023-09-23T04:30:36.287Z,14.27
2023-09-23T04:33:05.795Z,14.37
2023-09-23T04:35:33.261Z,14.41
2023-09-23T04:38:00.522Z,14.49
2023-09-23T04:40:28.035Z,14.57
2023-09-23T04:42:55.473Z,14.67
2023-09-23T04:45:22.824Z,14.79
2023-09-23T04:47:53.009Z,14.87
2023-09-23T04:50:24.736Z,15.00
2023-09-23T04:52:52.547Z,15.05
2023-09-23T04:55:20.739Z,15.15
2023-09-23T04:57:48.363Z,15.23
2023-09-23T05:00:20.113Z,15.34
2023-09-23T05:02:50.575Z,15.45
2023-09-23T05:05:17.990Z,15.51
2023-09-23T05:07:46.787Z,15.59
2023-09-23T05:10:14.856Z,15.69
2023-09-23T05:12:42.459Z,15.76
2023-09-23T05:15:11.405Z,15.88
2023-09-23T05:17:38.856Z,16.06
2023-09-23T05:20:15.712Z,16.25
2023-09-23T05:22:43.911Z,16.52
2023-09-23T05:25:15.537Z,16.76
2023-09-23T05:27:45.825Z,17.01
2023-09-23T05:30:13.461Z,17.23
2023-09-23T05:32:41.104Z,17.41
2023-09-23T05:35:12.722Z,17.62
2023-09-23T05:37:41.462Z,17.82
2023-09-23T05:40:25.168Z,17.99
2023-09-23T05:42:54.588Z,18.09
2023-09-23T05:45:26.339Z,18.13
2023-09-23T05:47:54.968Z,18.12
2023-09-23T05:50:23.087Z,18.20
2023-09-23T05:52:50.881Z,18.24
2023-09-23T05:55:18.427Z,18.27
2023-09-23T05:57:46.995Z,18.44
2023-09-23T06:00:16.885Z,18.51
2023-09-23T06:02:46.712Z,18.59
2023-09-23T06:05:15.510Z,18.67
2023-09-23T06:07:43.461Z,18.71
2023-09-23T06:10:12.663Z,18.78
2023-09-23T06:12:40.697Z,18.92
2023-09-23T06:15:12.159Z,19.03
2023-09-23T06:17:41.092Z,19.05
2023-09-23T06:20:10.269Z,19.14
2023-09-23T06:22:37.627Z,19.08
2023-09-23T06:25:06.057Z,19.18
2023-09-23T06:27:34.102Z,19.29
2023-09-23T06:30:01.527Z,19.36
2023-09-23T06:32:33.295Z,19.44
2023-09-23T06:35:02.433Z,19.51
2023-09-23T06:37:32.181Z,19.64
2023-09-23T06:39:59.640Z,19.82
2023-09-23T06:42:27.139Z,19.93
2023-09-23T06:44:54.419Z,19.94
2023-09-23T06:47:22.022Z,20.13
2023-09-23T06:49:49.510Z,20.23
2023-09-23T06:52:18.125Z,20.31
2023-09-23T06:54:45.736Z,20.43
2023-09-23T06:57:13.217Z,20.54
2023-09-23T06:59:40.617Z,20.63
2023-09-23T07:02:07.879Z,20.74
2023-09-23T07:04:37.385Z,20.84
2023-09-23T07:07:04.605Z,21.00
2023-09-23T07:09:33.556Z,21.16
2023-09-23T07:12:00.775Z,21.24
2023-09-23T07:14:28.209Z,21.37
2023-09-23T07:16:57.243Z,21.47
2023-09-23T07:19:24.492Z,21.60
2023-09-23T07:21:52.852Z,21.68
2023-09-23T07:24:20.093Z,21.76
2023-09-23T07:26:48.799Z,21.76
2023-09-23T07:29:16.159Z,21.89
2023-09-23T07:31:43.541Z,21.92
2023-09-23T07:34:11.001Z,21.97
2023-09-23T07:36:38.289Z,21.97
2023-09-23T07:39:05.545Z,22.13
2023-09-23T07:41:33.091Z,22.28
2023-09-23T07:44:01.794Z,22.43
2023-09-23T07:46:29.087Z,22.65
2023-09-23T07:48:56.685Z,22.81
2023-09-23T07:51:24.088Z,22.87
2023-09-23T07:53:52.423Z,22.88
2023-09-23T07:56:19.991Z,23.04
2023-09-23T07:58:47.388Z,23.13
2023-09-23T08:01:16.106Z,23.27
2023-09-23T08:03:43.423Z,23.40
2023-09-23T08:06:10.698Z,23.57
2023-09-23T08:08:37.948Z,23.60
2023-09-23T08:11:06.398Z,23.59
2023-09-23T08:13:33.675Z,23.67
2023-09-23T08:16:01.205Z,23.70
2023-09-23T08:18:29.992Z,23.76
2023-09-23T08:20:57.884Z,23.78
2023-09-23T08:23:25.694Z,23.86
2023-09-23T08:25:53.368Z,23.83
2023-09-23T08:28:20.790Z,23.84
2023-09-23T08:30:49.319Z,23.90
2023-09-23T08:33:16.700Z,24.04
2023-09-23T08:35:48.640Z,24.30
2023-09-23T08:38:16.289Z,24.51
2023-09-23T08:40:45.834Z,24.66
2023-09-23T08:43:13.368Z,24.66
2023-09-23T08:45:44.572Z,24.54
2023-09-23T08:48:14.502Z,24.49
2023-09-23T08:50:48.021Z,24.50
2023-09-23T08:53:17.247Z,24.60
2023-09-23T08:55:46.208Z,24.67
2023-09-23T08:58:13.798Z,24.74
2023-09-23T09:00:47.069Z,24.69
2023-09-23T09:03:15.199Z,24.80
2023-09-23T09:05:44.519Z,24.78
2023-09-23T09:08:12.070Z,24.80
2023-09-23T09:10:43.624Z,24.89
2023-09-23T09:13:11.286Z,24.94
2023-09-23T09:15:39.128Z,24.90
2023-09-23T09:18:07.091Z,24.93
2023-09-23T09:20:35.232Z,25.01
2023-09-23T09:23:02.892Z,25.05
2023-09-23T09:25:32.223Z,25.18
2023-09-23T09:28:01.023Z,25.22
2023-09-23T09:30:28.344Z,25.13
2023-09-23T09:33:00.603Z,25.10
2023-09-23T09:35:28.358Z,25.24
2023-09-23T09:38:11.198Z,25.26
2023-09-23T09:40:45.366Z,25.28
2023-09-23T09:43:14.876Z,25.27
2023-09-23T09:45:44.237Z,25.20
2023-09-23T09:48:14.042Z,25.20
2023-09-23T09:50:43.931Z,25.22
2023-09-23T09:53:11.240Z,25.21
2023-09-23T09:55:39.451Z,25.31
2023-09-23T09:58:06.664Z,25.41
2023-09-23T10:00:45.003Z,25.40
2023-09-23T10:03:14.618Z,25.40
2023-09-23T10:05:45.300Z,25.48
2023-09-23T10:08:21.238Z,25.66
2023-09-23T10:10:50.359Z,25.78
2023-09-23T10:13:19.700Z,25.80
2023-09-23T10:15:48.923Z,25.78
2023-09-23T10:18:19.135Z,25.73
2023-09-23T10:20:49.727Z,25.71
2023-09-23T10:23:19.224Z,25.63
2023-09-23T10:25:49.791Z,25.56
2023-09-23T10:28:24.474Z,25.56
2023-09-23T10:31:00.673Z,25.49
2023-09-23T10:33:30.352Z,25.52
2023-09-23T10:35:58.262Z,25.43
2023-09-23T10:38:27.616Z,25.42
2023-09-23T10:40:56.436Z,25.42
2023-09-23T10:43:23.939Z,25.47
2023-09-23T10:45:53.913Z,25.52
2023-09-23T10:48:22.718Z,25.55
2023-09-23T10:50:52.307Z,25.69
2023-09-23T10:53:22.593Z,25.68
2023-09-23T10:55:53.501Z,25.66
2023-09-23T10:58:21.310Z,25.67
2023-09-23T11:00:49.686Z,25.58
2023-09-23T11:03:22.844Z,25.65
2023-09-23T11:05:52.408Z,25.67
2023-09-23T11:08:19.899Z,25.75
2023-09-23T11:10:50.638Z,25.87
2023-09-23T11:13:18.179Z,25.86
2023-09-23T11:15:46.948Z,25.87
2023-09-23T11:18:17.211Z,25.76
2023-09-23T11:20:46.652Z,25.75
2023-09-23T11:23:15.977Z,25.75
2023-09-23T11:25:46.466Z,25.82
2023-09-23T11:28:18.752Z,25.88
2023-09-23T11:30:46.105Z,25.98
2023-09-23T11:33:14.129Z,26.06
2023-09-23T11:35:43.213Z,26.16
2023-09-23T11:38:11.272Z,26.11
2023-09-23T11:40:40.131Z,25.94
2023-09-23T11:43:07.966Z,25.93
2023-09-23T11:45:36.094Z,26.03
2023-09-23T11:48:09.009Z,26.13
2023-09-23T11:50:37.564Z,26.07
2023-09-23T11:53:05.674Z,26.14
2023-09-23T11:55:34.521Z,26.24
2023-09-23T11:58:03.700Z,26.21
2023-09-23T12:00:31.148Z,26.09
2023-09-23T12:02:58.743Z,26.09
2023-09-23T12:05:31.016Z,26.05
2023-09-23T12:08:00.379Z,26.06
2023-09-23T12:10:29.284Z,25.98
2023-09-23T12:13:04.832Z,25.92
2023-09-23T12:15:35.615Z,25.83
2023-09-23T12:18:04.150Z,25.91
2023-09-23T12:20:33.574Z,26.01
2023-09-23T12:23:02.155Z,26.08
2023-09-23T12:25:31.410Z,26.09
2023-09-23T12:27:59.016Z,26.23
2023-09-23T12:30:26.361Z,26.38
2023-09-23T12:32:55.266Z,26.45
2023-09-23T12:35:22.575Z,26.56
2023-09-23T12:37:50.072Z,26.56
2023-09-23T12:40:17.545Z,26.63
2023-09-23T12:42:44.918Z,26.67
2023-09-23T12:45:13.307Z,26.64
2023-09-23T12:47:56.110Z,26.68
2023-09-23T12:50:26.872Z,26.71
2023-09-23T12:52:55.110Z,26.88
2023-09-23T12:55:22.744Z,27.05
2023-09-23T12:57:50.130Z,27.20
2023-09-23T13:00:18.007Z,27.24
2023-09-23T13:02:45.639Z,27.27
2023-09-23T13:05:12.979Z,27.31
2023-09-23T13:07:41.642Z,27.41
2023-09-23T13:10:16.091Z,27.59
2023-09-23T13:12:45.438Z,27.67
2023-09-23T13:15:13.599Z,27.78
2023-09-23T13:17:41.041Z,27.77
2023-09-23T13:20:09.316Z,27.85
2023-09-23T13:22:37.100Z,27.98
2023-09-23T13:25:06.995Z,28.05
2023-09-23T13:27:34.522Z,28.00
2023-09-23T13:30:01.993Z,27.89
2023-09-23T13:32:32.460Z,27.80
2023-09-23T13:35:00.039Z,27.72
2023-09-23T13:37:27.321Z,27.62
2023-09-23T13:39:56.046Z,27.53
2023-09-23T13:42:24.718Z,27.59
2023-09-23T13:44:51.971Z,27.47
2023-09-23T13:47:19.346Z,27.12
2023-09-23T13:49:46.640Z,26.64
2023-09-23T13:52:13.991Z,26.16
2023-09-23T13:54:41.342Z,25.76
2023-09-23T13:57:08.556Z,25.41
2023-09-23T13:59:37.173Z,25.26
2023-09-23T14:02:06.033Z,25.11
2023-09-23T14:04:33.336Z,24.90
2023-09-23T14:07:00.611Z,24.82
2023-09-23T14:09:29.243Z,24.74
2023-09-23T14:11:57.482Z,24.66
2023-09-23T14:14:24.840Z,24.55
2023-09-23T14:16:53.543Z,24.43
2023-09-23T14:19:21.332Z,24.34
2023-09-23T14:21:48.620Z,24.27
2023-09-23T14:24:15.830Z,24.18
2023-09-23T14:26:43.397Z,24.08
2023-09-23T14:29:10.839Z,23.97
2023-09-23T14:31:38.149Z,23.91
2023-09-23T14:34:08.175Z,23.86
2023-09-23T14:36:35.412Z,23.82
2023-09-23T14:39:05.068Z,23.74
2023-09-23T14:41:36.379Z,23.67
2023-09-23T14:44:04.490Z,23.70
2023-09-23T14:46:32.285Z,23.64
2023-09-23T14:48:59.699Z,23.56
2023-09-23T14:51:28.486Z,23.52
2023-09-23T14:53:55.739Z,23.50
2023-09-23T14:56:23.007Z,23.46
2023-09-23T14:58:50.895Z,23.42
2023-09-23T15:01:18.357Z,23.37
2023-09-23T15:03:45.965Z,23.33
2023-09-23T15:06:13.421Z,23.29
2023-09-23T15:08:57.740Z,23.27
2023-09-23T15:11:29.192Z,23.20
2023-09-23T15:13:57.213Z,23.14
2023-09-23T15:16:24.669Z,23.09
2023-09-23T15:18:52.245Z,23.03
2023-09-23T15:21:19.526Z,22.99
2023-09-23T15:23:48.306Z,22.93
2023-09-23T15:26:15.751Z,22.89
2023-09-23T15:28:43.025Z,22.81
2023-09-23T15:31:10.816Z,22.73
2023-09-23T15:33:38.221Z,22.63
2023-09-23T15:36:06.067Z,22.55
2023-09-23T15:38:33.736Z,22.49
2023-09-23T15:41:02.507Z,22.44
2023-09-23T15:43:29.926Z,22.38
2023-09-23T15:46:02.947Z,22.34
2023-09-23T15:48:30.466Z,22.24
2023-09-23T15:51:08.130Z,22.12
2023-09-23T15:53:35.423Z,21.99
2023-09-23T15:56:08.486Z,21.90
2023-09-23T15:58:36.122Z,21.73
2023-09-23T16:01:05.517Z,21.57
2023-09-23T16:03:33.558Z,21.37
2023-09-23T16:06:01.297Z,21.23
2023-09-23T16:08:28.615Z,21.13
2023-09-23T16:10:56.129Z,21.06
2023-09-23T16:13:25.197Z,20.99
2023-09-23T16:15:52.523Z,20.98
2023-09-23T16:18:22.982Z,20.99
2023-09-23T16:20:51.857Z,20.97
2023-09-23T16:23:19.908Z,20.95
2023-09-23T16:25:47.417Z,20.92
2023-09-23T16:28:14.866Z,20.86
2023-09-23T16:30:43.605Z,20.80
2023-09-23T16:33:12.151Z,20.71
2023-09-23T16:35:39.635Z,20.68
2023-09-23T16:38:08.082Z,20.67
2023-09-23T16:40:36.046Z,20.66
2023-09-23T16:43:03.505Z,20.53
2023-09-23T16:45:30.825Z,20.50
2023-09-23T16:47:59.758Z,20.45
2023-09-23T16:50:27.332Z,20.45
2023-09-23T16:52:54.919Z,20.44
2023-09-23T16:55:22.225Z,20.45
2023-09-23T16:57:49.409Z,20.48
2023-09-23T17:00:18.365Z,20.49
2023-09-23T17:02:46.121Z,20.48
2023-09-23T17:05:15.421Z,20.40
2023-09-23T17:07:42.818Z,20.27
2023-09-23T17:10:10.832Z,20.16
2023-09-23T17:12:38.425Z,20.05
2023-09-23T17:15:06.927Z,19.98
2023-09-23T17:17:34.943Z,19.92
2023-09-23T17:20:02.683Z,19.92
2023-09-23T17:22:33.128Z,19.95
2023-09-23T17:25:01.304Z,19.94
2023-09-23T17:27:30.903Z,20.00
2023-09-23T17:29:58.192Z,20.02
2023-09-23T17:32:25.522Z,20.04
2023-09-23T17:34:52.905Z,20.02
2023-09-23T17:37:21.201Z,19.99
2023-09-23T17:39:49.799Z,19.93
2023-09-23T17:42:17.140Z,19.88
2023-09-23T17:44:46.778Z,19.81
2023-09-23T17:47:14.663Z,19.71
2023-09-23T17:49:41.925Z,19.51
2023-09-23T17:52:09.525Z,19.29
2023-09-23T17:54:36.922Z,19.12
2023-09-23T17:57:05.562Z,19.08
2023-09-23T17:59:32.947Z,19.08
2023-09-23T18:02:00.377Z,19.13
2023-09-23T18:04:27.799Z,19.19
2023-09-23T18:06:55.209Z,19.20
2023-09-23T18:09:22.597Z,19.13
2023-09-23T18:11:50.977Z,18.94
2023-09-23T18:14:19.723Z,18.91
2023-09-23T18:16:47.215Z,18.93
2023-09-23T18:19:14.522Z,18.98
2023-09-23T18:21:43.507Z,19.02
2023-09-23T18:24:11.586Z,18.99
2023-09-23T18:26:39.123Z,18.97
2023-09-23T18:29:06.600Z,18.97
2023-09-23T18:31:35.272Z,18.93
2023-09-23T18:34:02.711Z,18.91
2023-09-23T18:36:29.977Z,18.89
2023-09-23T18:38:57.281Z,18.85
2023-09-23T18:41:24.519Z,18.85
2023-09-23T18:43:51.781Z,18.86
2023-09-23T18:46:20.453Z,18.85
2023-09-23T18:48:50.148Z,18.82
2023-09-23T18:51:17.413Z,18.75
2023-09-23T18:53:44.714Z,18.74
2023-09-23T18:56:12.050Z,18.69
2023-09-23T18:58:39.469Z,18.68
2023-09-23T19:01:06.790Z,18.67
2023-09-23T19:03:34.363Z,18.60
2023-09-23T19:06:03.233Z,18.66
2023-09-23T19:08:30.963Z,18.68
2023-09-23T19:10:58.215Z,18.69
2023-09-23T19:13:25.489Z,18.70
2023-09-23T19:15:52.768Z,18.71
2023-09-23T19:18:20.333Z,18.74
2023-09-23T19:20:47.844Z,18.74
2023-09-23T19:23:16.621Z,18.75
2023-09-23T19:25:43.950Z,18.74
2023-09-23T19:28:11.295Z,18.82
2023-09-23T19:30:38.952Z,18.84
2023-09-23T19:33:06.501Z,18.87
2023-09-23T19:35:36.810Z,18.86
2023-09-23T19:38:04.781Z,18.89
2023-09-23T19:40:34.982Z,18.89
2023-09-23T19:43:02.471Z,18.87
2023-09-23T19:45:29.861Z,18.85
2023-09-23T19:47:59.365Z,18.86
2023-09-23T19:50:26.897Z,18.91
2023-09-23T19:52:54.115Z,18.90
2023-09-23T19:55:22.455Z,18.85
2023-09-23T19:57:51.134Z,18.79
2023-09-23T20:00:18.851Z,18.82
2023-09-23T20:02:46.142Z,18.82
2023-09-23T20:05:13.639Z,18.80
2023-09-23T20:07:41.111Z,18.76
2023-09-23T20:10:11.635Z,18.71
2023-09-23T20:12:39.007Z,18.64
2023-09-23T20:15:09.158Z,18.61
2023-09-23T20:17:37.254Z,18.59
2023-09-23T20:20:11.443Z,18.57
2023-09-23T20:22:38.801Z,18.52
2023-09-23T20:25:06.878Z,18.49
2023-09-23T20:27:34.504Z,18.49
2023-09-23T20:30:07.171Z,18.46
2023-09-23T20:32:39.804Z,18.46
2023-09-23T20:35:12.235Z,18.41
2023-09-23T20:37:40.177Z,18.33
2023-09-23T20:40:09.868Z,18.31
2023-09-23T20:42:37.403Z,18.35
2023-09-23T20:45:05.844Z,18.33
2023-09-23T20:47:34.990Z,18.33
2023-09-23T20:50:05.704Z,18.29
2023-09-23T20:52:34.386Z,18.31
2023-09-23T20:55:01.745Z,18.28
2023-09-23T20:57:31.935Z,18.23
2023-09-23T20:59:59.174Z,18.21
2023-09-23T21:02:26.657Z,18.17
2023-09-23T21:04:54.015Z,18.15
2023-09-23T21:07:22.569Z,18.13
2023-09-23T21:09:51.269Z,18.14
2023-09-23T21:12:18.608Z,18.18
2023-09-23T21:14:45.953Z,18.19
2023-09-23T21:17:13.375Z,18.21
2023-09-23T21:19:41.031Z,18.17
2023-09-23T21:22:08.614Z,18.13
2023-09-23T21:24:37.279Z,18.06
2023-09-23T21:27:04.549Z,18.00
2023-09-23T21:29:31.942Z,17.98
2023-09-23T21:31:59.515Z,17.96
2023-09-23T21:34:27.125Z,17.93
2023-09-23T21:36:54.535Z,17.92
2023-09-23T21:39:21.946Z,17.88
2023-09-23T21:41:51.670Z,17.83
2023-09-23T21:44:19.298Z,17.83
2023-09-23T21:46:46.626Z,17.78
2023-09-23T21:49:13.840Z,17.76
2023-09-23T21:51:41.126Z,17.77
2023-09-23T21:54:10.794Z,17.73
2023-09-23T21:56:44.368Z,17.70
2023-09-23T21:59:13.955Z,17.68
2023-09-23T22:01:41.601Z,17.68
2023-09-23T22:04:09.131Z,17.64
2023-09-23T22:06:37.196Z,17.57
2023-09-23T22:09:04.963Z,17.53
2023-09-23T22:11:32.754Z,17.50
2023-09-23T22:14:00.989Z,17.45
2023-09-23T22:16:29.546Z,17.47
2023-09-23T22:18:57.540Z,17.41
2023-09-23T22:21:24.854Z,17.40
2023-09-23T22:23:54.978Z,17.35
2023-09-23T22:26:22.359Z,17.28
2023-09-23T22:28:50.053Z,17.25
2023-09-23T22:31:17.409Z,17.19
2023-09-23T22:33:46.242Z,17.14
2023-09-23T22:36:13.771Z,17.13
2023-09-23T22:38:41.019Z,17.09
2023-09-23T22:41:08.257Z,17.10
2023-09-23T22:43:35.486Z,17.10
2023-09-23T22:46:02.834Z,17.05
2023-09-23T22:48:30.339Z,17.02
2023-09-23T22:50:59.383Z,16.97
2023-09-23T22:53:27.407Z,16.96
2023-09-23T22:55:56.315Z,16.90
2023-09-23T22:58:23.683Z,16.86
2023-09-23T23:00:51.687Z,16.90
2023-09-23T23:03:20.210Z,16.87
2023-09-23T23:05:47.742Z,16.84
2023-09-23T23:08:16.675Z,16.79
2023-09-23T23:10:44.118Z,16.83
2023-09-23T23:13:11.389Z,16.82
2023-09-23T23:15:40.412Z,16.79
2023-09-23T23:18:08.324Z,16.76
2023-09-23T23:20:36.065Z,16.71
2023-09-23T23:23:04.161Z,16.66
2023-09-23T23:25:37.212Z,16.57
2023-09-23T23:28:05.637Z,16.44
2023-09-23T23:30:33.299Z,16.31
2023-09-23T23:33:00.816Z,16.20
2023-09-23T23:35:29.186Z,16.08
2023-09-23T23:37:56.608Z,15.88
2023-09-23T23:40:24.795Z,15.74
2023-09-23T23:42:53.609Z,15.66
2023-09-23T23:45:22.410Z,15.51
2023-09-23T23:47:54.594Z,15.50
2023-09-23T23:50:24.018Z,15.43
2023-09-23T23:52:51.438Z,15.44
2023-09-23T23:55:19.609Z,15.46
2023-09-23T23:57:47.245Z,15.45
